createdAt,value
2023-01-20T00:01:49.295Z,73.15
2023-01-20T00:04:21.649Z,71.85
2023-01-20T00:06:51.374Z,72.35
2023-01-20T00:09:20.707Z,70.61
2023-01-20T00:11:50.045Z,69.90
2023-01-20T00:14:19.400Z,70.22
2023-01-20T00:16:48.505Z,69.66
2023-01-20T00:19:20.507Z,69.46
2023-01-20T00:21:50.136Z,69.57
2023-01-20T00:24:19.469Z,69.56
2023-01-20T00:26:48.592Z,69.15
2023-01-20T00:29:17.900Z,68.34
2023-01-20T00:31:47.290Z,68.12
2023-01-20T00:34:16.528Z,65.84
2023-01-20T00:36:45.616Z,66.07
2023-01-20T00:39:14.818Z,65.96
2023-01-20T00:41:43.985Z,65.98
2023-01-20T00:44:12.836Z,65.96
2023-01-20T00:46:42.122Z,66.47
2023-01-20T00:49:12.232Z,67.22
2023-01-20T00:51:41.244Z,67.67
2023-01-20T00:54:10.746Z,67.65
2023-01-20T00:56:40.186Z,67.85
2023-01-20T00:59:11.753Z,67.97
2023-01-20T01:01:42.230Z,68.13
2023-01-20T01:04:12.625Z,68.57
2023-01-20T01:06:44.956Z,68.61
2023-01-20T01:09:14.877Z,68.46
2023-01-20T01:11:48.891Z,68.60
2023-01-20T01:14:20.136Z,69.11
2023-01-20T01:16:50.611Z,69.75
2023-01-20T01:19:21.050Z,70.18
2023-01-20T01:21:51.110Z,69.46
2023-01-20T01:24:20.597Z,69.18
2023-01-20T01:26:51.017Z,70.31
2023-01-20T01:29:20.396Z,70.23
2023-01-20T01:31:49.913Z,69.08
2023-01-20T01:34:19.242Z,69.20
2023-01-20T01:36:48.837Z,68.99
2023-01-20T01:39:18.049Z,69.86
2023-01-20T01:41:47.276Z,69.99
2023-01-20T01:44:16.868Z,70.24
2023-01-20T01:46:46.019Z,70.09
2023-01-20T01:49:24.213Z,70.27
2023-01-20T01:52:05.476Z,69.74
2023-01-20T01:54:41.506Z,69.26
2023-01-20T01:57:11.416Z,69.11
2023-01-20T01:59:41.119Z,68.46
2023-01-20T02:02:10.604Z,67.80
2023-01-20T02:04:39.922Z,67.59
2023-01-20T02:07:19.344Z,67.93
2023-01-20T02:09:49.454Z,67.13
2023-01-20T02:12:22.167Z,67.20
2023-01-20T02:14:56.126Z,67.50
2023-01-20T02:17:31.687Z,67.01
2023-01-20T02:20:38.574Z,67.46
2023-01-20T02:23:15.975Z,66.99
2023-01-20T02:26:06.561Z,67.30
2023-01-20T02:28:52.829Z,67.59
2023-01-20T02:31:34.843Z,67.53
2023-01-20T02:34:13.071Z,68.11
2023-01-20T02:37:20.231Z,68.38
2023-01-20T02:39:55.358Z,69.00
2023-01-20T02:42:45.007Z,69.13
2023-01-20T02:45:37.937Z,70.18
2023-01-20T02:48:14.541Z,69.81
2023-01-20T02:51:05.309Z,70.71
2023-01-20T02:53:42.032Z,70.36
2023-01-20T02:56:14.303Z,70.40
2023-01-20T02:59:14.587Z,70.33
2023-01-20T03:02:17.990Z,70.05
2023-01-20T03:04:54.160Z,70.23
2023-01-20T03:07:28.300Z,69.77
2023-01-20T03:10:02.811Z,69.55
2023-01-20T03:12:42.328Z,69.32
2023-01-20T03:15:13.137Z,69.21
2023-01-20T03:17:43.053Z,68.84
2023-01-20T03:20:12.734Z,68.39
2023-01-20T03:22:42.605Z,68.29
2023-01-20T03:25:16.070Z,68.20
2023-01-20T03:27:45.651Z,68.07
2023-01-20T03:30:16.830Z,68.34
2023-01-20T03:32:50.053Z,67.78
2023-01-20T03:35:20.133Z,67.67
2023-01-20T03:37:49.571Z,67.29
2023-01-20T03:40:19.292Z,67.52
2023-01-20T03:42:58.602Z,67.48
2023-01-20T03:45:54.393Z,67.21
2023-01-20T03:48:45.358Z,67.84
2023-01-20T03:51:27.401Z,67.63
2023-01-20T03:54:14.462Z,67.72
2023-01-20T03:57:13.669Z,67.14
2023-01-20T03:59:46.027Z,66.81
2023-01-20T04:02:15.989Z,67.06
2023-01-20T04:04:48.645Z,67.03
2023-01-20T04:07:23.425Z,66.60
2023-01-20T04:09:55.839Z,67.24
2023-01-20T04:12:25.346Z,67.11
2023-01-20T04:14:54.602Z,66.44
2023-01-20T04:17:31.165Z,66.63
2023-01-20T04:20:11.549Z,66.15
2023-01-20T04:22:42.822Z,65.65
2023-01-20T04:25:32.288Z,65.70
2023-01-20T04:28:02.209Z,65.15
2023-01-20T04:30:31.536Z,65.36
2023-01-20T04:33:01.163Z,64.89
2023-01-20T04:35:30.453Z,65.33
2023-01-20T04:38:00.098Z,65.59
2023-01-20T04:40:29.631Z,65.35
2023-01-20T04:42:59.002Z,65.38
2023-01-20T04:45:28.763Z,65.22
2023-01-20T04:47:58.603Z,65.15
2023-01-20T04:50:28.020Z,64.96
2023-01-20T04:53:00.623Z,64.47
2023-01-20T04:55:30.688Z,64.23
2023-01-20T04:58:00.462Z,64.53
2023-01-20T05:00:30.221Z,63.57
2023-01-20T05:03:00.214Z,63.80
2023-01-20T05:05:30.248Z,63.36
2023-01-20T05:08:00.731Z,63.50
2023-01-20T05:10:30.807Z,63.78
2023-01-20T05:13:00.514Z,64.20
2023-01-20T05:15:30.057Z,63.88
2023-01-20T05:17:59.592Z,63.67
2023-01-20T05:20:30.394Z,64.06
2023-01-20T05:23:01.358Z,64.62
2023-01-20T05:25:31.140Z,64.92
2023-01-20T05:28:02.978Z,64.73
2023-01-20T05:30:32.411Z,64.57
2023-01-20T05:33:02.204Z,64.53
2023-01-20T05:35:32.101Z,65.52
2023-01-20T05:38:01.385Z,65.05
2023-01-20T05:40:31.055Z,65.76
2023-01-20T05:43:04.322Z,66.53
2023-01-20T05:45:34.474Z,66.53
2023-01-20T05:48:04.347Z,66.54
2023-01-20T05:50:33.725Z,66.59
2023-01-20T05:53:03.287Z,66.73
2023-01-20T05:55:33.396Z,67.32
2023-01-20T05:58:06.274Z,66.88
2023-01-20T06:00:36.421Z,66.68
2023-01-20T06:03:06.861Z,67.01
2023-01-20T06:05:37.204Z,66.38
2023-01-20T06:08:06.972Z,67.75
2023-01-20T06:10:37.083Z,68.03
2023-01-20T06:13:06.540Z,66.96
2023-01-20T06:15:35.771Z,67.96
2023-01-20T06:18:05.283Z,69.54
2023-01-20T06:20:34.655Z,68.89
2023-01-20T06:23:03.955Z,69.00
2023-01-20T06:25:33.715Z,69.07
2023-01-20T06:28:03.713Z,69.03
2023-01-20T06:30:33.058Z,72.09
2023-01-20T06:33:02.627Z,71.90
2023-01-20T06:35:34.709Z,71.02
2023-01-20T06:38:04.220Z,69.41
2023-01-20T06:40:34.270Z,70.02
2023-01-20T06:43:04.153Z,70.50
2023-01-20T06:45:33.485Z,71.34
2023-01-20T06:48:02.971Z,70.55
2023-01-20T06:50:35.506Z,69.87
2023-01-20T06:53:04.875Z,69.59
2023-01-20T06:55:34.411Z,69.42
2023-01-20T06:58:03.515Z,69.16
2023-01-20T07:00:32.741Z,69.26
2023-01-20T07:03:02.028Z,69.53
2023-01-20T07:05:31.068Z,69.25
2023-01-20T07:08:00.467Z,68.90
2023-01-20T07:10:29.616Z,69.02
2023-01-20T07:12:59.068Z,70.12
2023-01-20T07:15:28.338Z,70.32
2023-01-20T07:17:58.034Z,70.85
2023-01-20T07:20:27.355Z,70.62
2023-01-20T07:22:56.589Z,70.10
2023-01-20T07:25:26.431Z,70.41
2023-01-20T07:27:56.326Z,70.52
2023-01-20T07:30:26.687Z,70.26
2023-01-20T07:32:56.160Z,71.15
2023-01-20T07:35:25.540Z,71.77
2023-01-20T07:37:55.008Z,71.96
2023-01-20T07:40:24.489Z,72.18
2023-01-20T07:42:53.148Z,71.97
2023-01-20T07:45:22.562Z,73.22
2023-01-20T07:47:51.959Z,74.33
2023-01-20T07:50:21.332Z,75.30
2023-01-20T07:52:50.815Z,77.22
2023-01-20T07:55:20.603Z,77.77
2023-01-20T07:57:50.015Z,77.00
2023-01-20T08:00:22.503Z,77.04
2023-01-20T08:02:51.866Z,77.25
2023-01-20T08:05:21.604Z,77.46
2023-01-20T08:07:55.126Z,78.21
2023-01-20T08:10:24.643Z,78.79
2023-01-20T08:12:54.352Z,78.97
2023-01-20T08:15:24.104Z,80.01
2023-01-20T08:17:58.573Z,79.78
2023-01-20T08:20:28.575Z,79.63
2023-01-20T08:22:58.241Z,79.18
2023-01-20T08:25:28.451Z,79.33
2023-01-20T08:27:58.135Z,78.32
2023-01-20T08:30:27.666Z,77.49
2023-01-20T08:32:57.708Z,76.26
2023-01-20T08:35:27.672Z,76.21
2023-01-20T08:37:57.249Z,76.38
2023-01-20T08:40:26.898Z,77.30
2023-01-20T08:42:56.544Z,77.73
2023-01-20T08:45:26.399Z,78.28
2023-01-20T08:47:56.365Z,77.32
2023-01-20T08:50:26.275Z,75.04
2023-01-20T08:52:55.975Z,73.48
2023-01-20T08:55:25.658Z,73.75
2023-01-20T08:57:55.199Z,73.10
2023-01-20T09:00:25.106Z,72.09
2023-01-20T09:02:55.193Z,72.76
2023-01-20T09:05:25.154Z,72.15
2023-01-20T09:07:54.786Z,70.67
2023-01-20T09:10:24.701Z,71.01
2023-01-20T09:12:54.019Z,70.81
2023-01-20T09:15:25.641Z,71.06
2023-01-20T09:17:55.934Z,72.34
2023-01-20T09:20:25.939Z,70.59
2023-01-20T09:22:55.573Z,69.63
2023-01-20T09:25:24.987Z,70.82
2023-01-20T09:27:54.683Z,70.35
2023-01-20T09:30:24.248Z,70.33
2023-01-20T09:32:56.652Z,68.79
2023-01-20T09:35:26.550Z,70.19
2023-01-20T09:38:14.725Z,70.56
2023-01-20T09:41:25.498Z,70.88
2023-01-20T09:44:02.986Z,70.84
2023-01-20T09:46:45.341Z,70.83
2023-01-20T09:49:56.297Z,71.49
2023-01-20T09:52:53.616Z,71.58
2023-01-20T09:55:45.497Z,71.19
2023-01-20T09:58:31.529Z,70.81
2023-01-20T10:01:32.051Z,70.59
2023-01-20T10:04:33.849Z,70.43
2023-01-20T10:07:15.452Z,70.24
2023-01-20T10:10:00.768Z,71.10
2023-01-20T10:12:30.007Z,70.17
2023-01-20T10:15:13.748Z,70.88
2023-01-20T10:18:01.776Z,71.44
2023-01-20T10:20:58.724Z,70.83
2023-01-20T10:23:53.544Z,71.21
2023-01-20T10:26:40.881Z,71.09
2023-01-20T10:29:19.468Z,72.05
2023-01-20T10:32:25.458Z,71.73
2023-01-20T10:34:59.513Z,71.50
2023-01-20T10:37:31.664Z,71.92
2023-01-20T10:40:35.315Z,71.16
2023-01-20T10:43:16.865Z,71.65
2023-01-20T10:45:56.259Z,72.10
2023-01-20T10:48:33.467Z,71.73
2023-01-20T10:51:02.947Z,72.19
2023-01-20T10:53:51.854Z,71.89
2023-01-20T10:56:36.414Z,72.88
2023-01-20T10:59:17.291Z,73.26
2023-01-20T11:02:02.526Z,74.44
2023-01-20T11:04:40.874Z,75.68
2023-01-20T11:07:19.695Z,75.74
2023-01-20T11:09:50.381Z,75.53
2023-01-20T11:12:27.509Z,76.07
2023-01-20T11:15:01.242Z,75.83
2023-01-20T11:17:30.954Z,75.79
2023-01-20T11:20:08.191Z,76.01
2023-01-20T11:22:39.601Z,75.84
2023-01-20T11:25:26.888Z,75.72
2023-01-20T11:27:56.574Z,75.51
2023-01-20T11:30:35.740Z,75.41
2023-01-20T11:33:18.066Z,76.63
2023-01-20T11:36:06.437Z,76.57
2023-01-20T11:38:50.419Z,77.31
2023-01-20T11:41:31.420Z,77.75
2023-01-20T11:44:02.608Z,78.31
2023-01-20T11:46:39.565Z,78.95
2023-01-20T11:49:23.359Z,79.11
2023-01-20T11:51:59.678Z,79.93
2023-01-20T11:54:31.758Z,80.17
2023-01-20T11:57:08.743Z,80.49
2023-01-20T11:59:47.820Z,80.40
2023-01-20T12:02:17.399Z,80.93
2023-01-20T12:04:54.220Z,81.36
2023-01-20T12:07:47.871Z,81.11
2023-01-20T12:10:29.725Z,81.62
2023-01-20T12:13:19.003Z,81.73
2023-01-20T12:15:55.992Z,82.74
2023-01-20T12:18:31.796Z,82.37
2023-01-20T12:21:10.474Z,82.84
2023-01-20T12:23:46.738Z,82.92
2023-01-20T12:26:19.514Z,82.95
2023-01-20T12:29:09.134Z,83.83
2023-01-20T12:31:39.035Z,83.69
2023-01-20T12:34:22.516Z,84.39
2023-01-20T12:37:12.979Z,84.06
2023-01-20T12:39:48.485Z,85.14
2023-01-20T12:42:36.297Z,85.35
2023-01-20T12:45:12.392Z,85.85
2023-01-20T12:48:18.879Z,86.32
2023-01-20T12:51:09.305Z,87.41
2023-01-20T12:53:44.786Z,87.00
2023-01-20T12:56:47.767Z,87.32
2023-01-20T12:59:45.312Z,87.64
2023-01-20T13:02:17.891Z,87.95
2023-01-20T13:04:47.002Z,87.61
2023-01-20T13:07:16.828Z,87.68
2023-01-20T13:09:58.529Z,88.37
2023-01-20T13:12:52.525Z,89.84
2023-01-20T13:15:38.137Z,89.47
2023-01-20T13:18:26.403Z,89.55
2023-01-20T13:20:57.184Z,89.11
2023-01-20T13:23:34.948Z,89.26
2023-01-20T13:26:06.780Z,89.10
2023-01-20T13:28:36.597Z,89.57
2023-01-20T13:31:38.211Z,89.62
2023-01-20T13:34:23.512Z,89.58
2023-01-20T13:37:05.308Z,90.11
2023-01-20T13:39:47.167Z,90.31
2023-01-20T13:42:38.053Z,91.33
2023-01-20T13:45:13.934Z,91.38
2023-01-20T13:48:08.384Z,91.38
2023-01-20T13:50:40.261Z,92.08
2023-01-20T13:53:12.790Z,92.20
2023-01-20T13:55:50.555Z,92.48
2023-01-20T13:58:27.222Z,92.50
2023-01-20T14:01:00.900Z,92.75
2023-01-20T14:03:31.704Z,92.86
2023-01-20T14:06:19.670Z,93.38
2023-01-20T14:08:51.800Z,93.36
2023-01-20T14:11:24.371Z,93.76
2023-01-20T14:13:53.546Z,93.26
2023-01-20T14:16:30.677Z,93.77
2023-01-20T14:19:36.379Z,94.63
2023-01-20T14:22:24.980Z,94.42
2023-01-20T14:25:01.226Z,94.49
2023-01-20T14:27:34.534Z,94.81
2023-01-20T14:30:26.249Z,94.61
2023-01-20T14:32:56.098Z,94.87
2023-01-20T14:35:35.240Z,94.57
2023-01-20T14:38:05.147Z,94.73
2023-01-20T14:40:37.457Z,95.04
2023-01-20T14:43:21.449Z,95.04
2023-01-20T14:45:55.975Z,95.19
2023-01-20T14:48:34.532Z,95.52
2023-01-20T14:51:07.054Z,95.09
2023-01-20T14:53:37.428Z,95.14
2023-01-20T14:56:20.311Z,95.50
2023-01-20T14:58:50.389Z,94.67
2023-01-20T15:01:25.891Z,95.08
2023-01-20T15:04:04.226Z,95.01
2023-01-20T15:06:34.000Z,95.01
2023-01-20T15:09:06.927Z,95.04
2023-01-20T15:11:37.894Z,95.55
2023-01-20T15:14:11.848Z,95.97
2023-01-20T15:16:48.648Z,96.82
2023-01-20T15:19:18.582Z,96.48
2023-01-20T15:21:51.282Z,96.69
2023-01-20T15:24:22.043Z,96.21
2023-01-20T15:26:53.808Z,96.40
2023-01-20T15:29:28.241Z,96.05
2023-01-20T15:32:00.315Z,96.93
2023-01-20T15:34:30.901Z,97.56
2023-01-20T15:37:00.747Z,97.99
2023-01-20T15:39:31.326Z,97.29
2023-01-20T15:42:02.665Z,97.05
2023-01-20T15:44:32.414Z,97.38
2023-01-20T15:47:02.417Z,97.55
2023-01-20T15:49:31.896Z,97.27
2023-01-20T15:52:01.518Z,97.62
2023-01-20T15:54:31.083Z,97.43
2023-01-20T15:57:01.671Z,97.45
2023-01-20T15:59:33.626Z,97.42
2023-01-20T16:02:03.651Z,97.59
2023-01-20T16:04:33.514Z,97.92
2023-01-20T16:07:03.145Z,98.24
2023-01-20T16:09:38.386Z,97.79
2023-01-20T16:12:08.101Z,98.01
2023-01-20T16:14:40.549Z,98.39
2023-01-20T16:17:17.475Z,97.86
2023-01-20T16:19:47.875Z,98.42
2023-01-20T16:22:18.504Z,98.46
2023-01-20T16:24:50.426Z,98.54
2023-01-20T16:27:24.923Z,98.64
2023-01-20T16:29:57.271Z,99.04
2023-01-20T16:32:28.253Z,99.20
2023-01-20T16:34:58.853Z,98.67
2023-01-20T16:37:29.621Z,98.93
2023-01-20T16:40:00.748Z,98.91
2023-01-20T16:42:32.761Z,98.59
2023-01-20T16:45:06.989Z,99.17
2023-01-20T16:47:37.525Z,98.97
2023-01-20T16:50:08.597Z,99.00
2023-01-20T16:52:38.868Z,99.33
2023-01-20T16:55:11.603Z,99.15
2023-01-20T16:57:45.172Z,99.36
2023-01-20T17:00:18.694Z,99.56
2023-01-20T17:02:55.641Z,100.00
2023-01-20T17:05:29.274Z,99.65
2023-01-20T17:08:01.591Z,99.89
2023-01-20T17:10:36.719Z,99.67
2023-01-20T17:13:14.591Z,98.97
2023-01-20T17:15:45.192Z,100.00
2023-01-20T17:18:15.577Z,100.00
2023-01-20T17:20:46.052Z,100.00
2023-01-20T17:23:19.966Z,99.84
2023-01-20T17:25:50.583Z,99.56
2023-01-20T17:28:20.953Z,99.57
2023-01-20T17:30:51.592Z,99.56
2023-01-20T17:33:22.089Z,100.00
2023-01-20T17:36:05.456Z,99.93
2023-01-20T17:38:37.526Z,100.00
2023-01-20T17:41:16.786Z,100.00
2023-01-20T17:43:50.922Z,100.00
2023-01-20T17:46:23.759Z,100.00
2023-01-20T17:48:54.365Z,100.00
2023-01-20T17:51:27.202Z,100.00
2023-01-20T17:54:03.415Z,100.00
2023-01-20T17:56:34.495Z,100.00
2023-01-20T17:59:09.120Z,100.00
2023-01-20T18:01:45.542Z,100.00
2023-01-20T18:04:16.196Z,100.00
2023-01-20T18:06:52.171Z,100.00
2023-01-20T18:09:22.841Z,100.00
2023-01-20T18:11:53.447Z,100.00
2023-01-20T18:14:23.823Z,100.00
2023-01-20T18:16:55.704Z,100.00
2023-01-20T18:19:25.994Z,100.00
2023-01-20T18:21:56.313Z,100.00
2023-01-20T18:24:26.531Z,100.00
2023-01-20T18:26:57.937Z,100.00
2023-01-20T18:29:31.091Z,100.00
2023-01-20T18:32:01.186Z,100.00
2023-01-20T18:34:31.063Z,100.00
2023-01-20T18:37:00.813Z,100.00
2023-01-20T18:39:31.259Z,100.00
2023-01-20T18:42:01.451Z,100.00
2023-01-20T18:44:31.607Z,100.00
2023-01-20T18:47:01.481Z,100.00
2023-01-20T18:52:51.243Z,100.00
2023-01-20T18:55:20.935Z,100.00
2023-01-20T18:57:50.449Z,100.00
2023-01-20T19:00:20.516Z,100.00
2023-01-20T19:02:53.739Z,100.00
2023-01-20T19:05:23.409Z,100.00
2023-01-20T19:07:53.488Z,100.00
2023-01-20T19:10:23.080Z,100.00
2023-01-20T19:12:53.885Z,100.00
2023-01-20T19:15:23.353Z,100.00
2023-01-20T19:17:56.110Z,100.00
2023-01-20T19:20:25.896Z,100.00
2023-01-20T19:22:55.394Z,100.00
2023-01-20T19:25:30.714Z,100.00
2023-01-20T19:28:00.360Z,100.00
2023-01-20T19:30:30.367Z,100.00
2023-01-20T19:32:59.749Z,100.00
2023-01-20T19:35:31.402Z,100.00
2023-01-20T19:38:01.102Z,100.00
2023-01-20T19:40:30.617Z,100.00
2023-01-20T19:43:02.169Z,100.00
2023-01-20T19:45:44.879Z,100.00
2023-01-20T19:48:15.468Z,100.00
2023-01-20T19:50:45.345Z,100.00
2023-01-20T19:53:14.940Z,100.00
2023-01-20T19:55:44.596Z,100.00
2023-01-20T19:58:14.076Z,100.00
2023-01-20T20:00:43.520Z,100.00
2023-01-20T20:03:13.170Z,100.00
2023-01-20T20:05:42.628Z,100.00
2023-01-20T20:08:12.319Z,100.00
2023-01-20T20:10:45.141Z,100.00
2023-01-20T20:13:14.671Z,100.00
2023-01-20T20:15:44.185Z,100.00
2023-01-20T20:18:13.840Z,100.00
2023-01-20T20:20:46.220Z,100.00
2023-01-20T20:23:15.782Z,100.00
2023-01-20T20:25:51.167Z,100.00
2023-01-20T20:28:20.782Z,100.00
2023-01-20T20:30:50.245Z,100.00
2023-01-20T20:33:20.411Z,100.00
2023-01-20T20:35:50.488Z,100.00
2023-01-20T20:38:20.410Z,100.00
2023-01-20T20:40:50.093Z,100.00
2023-01-20T20:43:24.061Z,100.00
2023-01-20T20:46:00.566Z,100.00
2023-01-20T20:48:30.983Z,100.00
2023-01-20T20:51:07.236Z,100.00
2023-01-20T20:53:37.118Z,100.00
2023-01-20T20:56:11.884Z,100.00
2023-01-20T20:58:55.532Z,100.00
2023-01-20T21:01:29.917Z,100.00
2023-01-20T21:04:01.575Z,100.00
2023-01-20T21:06:32.018Z,100.00
2023-01-20T21:09:02.046Z,100.00
2023-01-20T21:11:31.594Z,100.00
2023-01-20T21:14:01.131Z,100.00
2023-01-20T21:16:31.038Z,100.00
2023-01-20T21:19:02.383Z,100.00
2023-01-20T21:21:32.066Z,100.00
2023-01-20T21:24:01.394Z,100.00
2023-01-20T21:26:31.140Z,100.00
2023-01-20T21:29:04.949Z,100.00
2023-01-20T21:31:35.671Z,100.00
2023-01-20T21:34:05.510Z,100.00
2023-01-20T21:36:35.748Z,100.00
2023-01-20T21:39:06.451Z,100.00
2023-01-20T21:41:36.237Z,100.00
2023-01-20T21:44:23.886Z,100.00
2023-01-20T21:46:53.586Z,100.00
2023-01-20T21:49:41.303Z,100.00
2023-01-20T21:52:34.602Z,100.00
2023-01-20T21:55:05.476Z,100.00
2023-01-20T21:57:35.291Z,100.00
2023-01-20T22:00:08.161Z,100.00
2023-01-20T22:02:48.130Z,100.00
2023-01-20T22:05:17.827Z,100.00
2023-01-20T22:07:49.153Z,100.00
2023-01-20T22:10:18.984Z,100.00
2023-01-20T22:12:48.813Z,100.00
2023-01-20T22:15:18.499Z,100.00
2023-01-20T22:17:48.759Z,100.00
2023-01-20T22:20:19.028Z,100.00
2023-01-20T22:22:48.687Z,100.00
2023-01-20T22:25:18.200Z,100.00
2023-01-20T22:27:50.286Z,100.00
2023-01-20T22:30:20.372Z,100.00
2023-01-20T22:32:50.143Z,100.00
2023-01-20T22:35:19.707Z,100.00
2023-01-20T22:37:49.154Z,100.00
2023-01-20T22:40:18.880Z,100.00
2023-01-20T22:42:48.626Z,100.00
2023-01-20T22:45:18.131Z,100.00
2023-01-20T22:47:47.618Z,100.00
2023-01-20T22:50:17.686Z,100.00
2023-01-20T22:52:47.669Z,100.00
2023-01-20T22:55:17.517Z,100.00
2023-01-20T22:57:47.282Z,100.00
2023-01-20T23:00:18.768Z,100.00
2023-01-20T23:02:48.790Z,100.00
2023-01-20T23:05:18.476Z,100.00
2023-01-20T23:07:48.140Z,100.00
2023-01-20T23:10:37.696Z,100.00
2023-01-20T23:13:07.506Z,100.00
2023-01-20T23:15:36.839Z,100.00
2023-01-20T23:18:06.957Z,100.00
2023-01-20T23:20:36.820Z,100.00
2023-01-20T23:23:06.910Z,100.00
2023-01-20T23:25:36.901Z,100.00
2023-01-20T23:28:06.708Z,100.00
2023-01-20T23:30:36.326Z,100.00
2023-01-20T23:33:06.553Z,100.00
2023-01-20T23:35:39.936Z,100.00
2023-01-20T23:38:10.752Z,100.00
2023-01-20T23:40:40.255Z,100.00
2023-01-20T23:43:10.171Z,100.00
2023-01-20T23:45:39.769Z,100.00
2023-01-20T23:48:09.335Z,100.00
2023-01-20T23:50:39.275Z,100.00
2023-01-20T23:53:08.637Z,100.00
2023-01-20T23:55:38.969Z,100.00
2023-01-20T23:58:08.571Z,100.00
